| Date | Time | Temp. (oF) | Dew Point (oF) | Rel. Hum. (%) | Press. (in.) | Wind Dir. | Wind Speed (mph) | Hourly Rainfall (in.) |
|
|---|---|---|---|---|---|---|---|---|---|
| 1 | 12/17 | 00:00 | 46 | 45 | 100 | 29.89 | NNE | 0 | 0.00 |
| 2 | 12/16 | 23:00 | 46 | 45 | 100 | 29.88 | ESE | 4 | 0.00 |
| 3 | 12/16 | 22:00 | 46 | 45 | 100 | 29.90 | ESE | 0 | 0.05 |
| 4 | 12/16 | 21:00 | 46 | 45 | 100 | 29.90 | SSE | 0 | 0.06 |
| 5 | 12/16 | 20:00 | 47 | 46 | 100 | 29.91 | SE | 2 | 0.01 |
| 6 | 12/16 | 19:00 | 47 | 46 | 98 | 29.91 | E | 3 | 0.00 |
| 7 | 12/16 | 18:00 | 47 | 45 | 95 | 29.92 | SSW | 3 | 0.00 |
| 8 | 12/16 | 17:00 | 48 | 46 | 94 | 29.91 | SSE | 2 | 0.00 |
| 9 | 12/16 | 16:00 | 48 | 45 | 91 | 29.92 | SE | 6 | 0.00 |
| 10 | 12/16 | 15:00 | 49 | 45 | 88 | 29.94 | SW | 1 | 0.00 |
| 11 | 12/16 | 14:00 | 50 | 46 | 87 | 29.94 | ESE | 4 | 0.00 |
| 12 | 12/16 | 13:00 | 49 | 45 | 87 | 29.96 | SSW | 4 | 0.00 |
| 13 | 12/16 | 12:00 | 49 | 45 | 88 | 29.99 | SSE | 4 | 0.00 |
| 14 | 12/16 | 11:00 | 48 | 46 | 94 | 30.01 | SSE | 4 | 0.00 |
| 15 | 12/16 | 10:00 | 46 | 45 | 98 | 30.04 | S | 5 | 0.00 |
| 16 | 12/16 | 09:00 | 43 | 42 | 100 | 30.05 | E | 0 | 0.00 |
| 17 | 12/16 | 08:00 | 42 | 41 | 100 | 30.06 | NNW | 0 | 0.00 |
| 18 | 12/16 | 07:00 | 42 | 41 | 100 | 30.07 | SE | 4 | 0.00 |
| 19 | 12/16 | 06:00 | 42 | 41 | 100 | 30.08 | ESE | 2 | 0.00 |
| 20 | 12/16 | 05:00 | 42 | 41 | 100 | 30.09 | E | 0 | 0.00 |
| 21 | 12/16 | 04:00 | 42 | 41 | 99 | 30.10 | SE | 1 | 0.00 |
| 22 | 12/16 | 03:00 | 41 | 39 | 96 | 30.09 | SSE | 9 | 0.00 |
| 23 | 12/16 | 02:00 | 41 | 38 | 91 | 30.13 | SSE | 4 | 0.00 |
| 24 | 12/16 | 01:00 | 41 | 36 | 85 | 30.16 | S | 3 | 0.00 |